Terminal Aerodrome Forecast
Issued by NWS Jackson, KY

Home | Current Version | Previous Version | Text Only | Print | Product List | Glossary On
Versions: 1 2 3 4 5 6 7 8 9 10 11 12 13 14 15 16 17 18 19 20
000
FTUS43 KJKL 240300 AAC
TAFJKL
TAF AMD
KJKL 240336Z 2404/2424 VRB03KT 5SM -SHRA BR VCTS SCT005 BKN040CB
      OVC070
      TEMPO 2404/2406 1/2SM -TSRA FG BKN003 OVC015CB
     FM240600 VRB03KT 3SM BR VCSH BKN015 OVC020
     FM241500 34006KT P6SM SCT050=

USA.gov is the U.S. government's official web portal to all federal, state and local government web resources and services.